Saturday, March 24, 2018, 5:54 PM GMT
Back to Local

CYCX, Gagetown Can-Mil

Location: , , Canada Lat: 45.833
Local Time: 5:54 PM GMT (17:54 GMT) Lon: -66.433
Time Zone: GMT Elev: 167 ft

Show me the last for .
Show Decoded

2018-03-24 17:00 METAR CYCX 241700Z 05010KT 020V090 10SM -SN BKN025 OVC060 02/M03 A3003 RMK
                 SC6SC2 DA-1405FT PCPN VRY LGT SLP171 =
2018-03-24 16:27 METAR CYCX 241627Z 05007KT 10SM -SN BKN025 OVC050 02/M03 A3003 RMK SC5SC3
                 DA-1417FT PCPN VRY LGT SLP171 =
2018-03-24 16:00 METAR CYCX 241600Z 03010KT 360V070 10SM BKN025 OVC050 02/M03 A3002 RMK SC5SC3
                 DA-1429FT SLP170 =
2018-03-24 15:32 METAR CYCX 241532Z 05011KT 10SM OVC025 02/M03 A3003 RMK SC8 DA-1505FT SLP171 =
2018-03-24 14:00 METAR CYCX 241400Z 05006KT 360V070 10SM -SN BKN018 OVC070 01/M02 A3002 RMK
                 SC5AC3 DA-1526FT PCPN VRY LGT SLP168 =
2018-03-24 13:53 METAR CYCX 241353Z 03008KT 10SM -SN BKN018 OVC070 01/M02 A3002 RMK SC5AC3
                 DA-1538FT PCPN VRY LGT SLP168 =
2018-03-24 13:00 METAR CYCX 241300Z 03008KT 15SM OVC080 01/M02 A3001 RMK AC8 DA-1577FT SLP166 =
2018-03-24 12:00 METAR CYCX 241200Z 02005KT 15SM FEW025 BKN040 OVC090 M00/M01 A3000 RMK SC2SC4AC2
                 DA-1663FT SLP163 =
2018-03-24 11:00 METAR CYCX 241100Z 35003KT 10SM FEW024 BKN050 OVC090 M01/M02 A2999 RMK SC2SC2AC3
                 DA-1754FT SLP160 =
2018-03-24 10:00 METAR CYCX 241000Z 03003KT 010V070 10SM OVC022 M01/M02 A2997 RMK SC8 DA-1731FT
                 SLP153 =
2018-03-24 09:52 METAR CYCX 240952Z 04003KT 010V070 10SM OVC022 M01/M02 A2997 RMK SC8 DA-1718FT
                 SLP151 =
2018-03-24 09:24 METAR CYCX 240924Z 04003KT 010V070 10SM -SN OVC015 M01/M02 A2997 RMK SC8
                 DA-1747FT PCPN VRY LGT SLP150 =
2018-03-24 09:00 METAR CYCX 240900Z 02002KT 15SM OVC078 M01/M03 A2996 RMK AC8 DA-1802FT SLP148 =
2018-03-24 08:00 METAR CYCX 240800Z 01002KT 15SM OVC076 M01/M03 A2995 RMK AC8 DA-1764FT SLP144 =
2018-03-24 07:00 METAR CYCX 240700Z 07003KT 15SM OVC076 M01/M03 A2995 RMK AC8 DA-1676FT SLP142 =
2018-03-24 06:00 METAR CYCX 240600Z 08002KT 15SM OVC074 M00/M03 A2994 RMK AC8 DA-1627FT SLP142 =
2018-03-24 05:00 METAR CYCX 240500Z 08003KT 15SM FEW050 OVC074 M00/M03 A2994 RMK SC2AC6 DA-1602FT
                 SLP140 =
2018-03-24 04:00 METAR CYCX 240400Z 34002KT 15SM OVC074 00/M03 A2992 RMK AC8 DA-1530FT SLP135 =
2018-03-24 03:00 METAR CYCX 240300Z 14004KT 15SM OVC064 01/M03 A2992 RMK SC8 DA-1429FT SLP135 =
2018-03-24 02:00 METAR CYCX 240200Z 12003KT 15SM OVC056 01/M04 A2992 RMK SC8 DA-1392FT SLP135 =
2018-03-24 01:00 METAR CYCX 240100Z 11004KT 15SM OVC056 02/M04 A2991 RMK SC8 DA-1306FT SLP132 =
2018-03-24 00:00 METAR CYCX 240000Z 11002KT 15SM OVC061 02/M04 A2990 RMK SC8 DA-1321FT SLP126 =
2018-03-23 23:00 METAR CYCX 232300Z 11004KT 15SM OVC054 03/M04 A2988 RMK SC8 DA-1209FT SLP120 =
2018-03-23 22:00 METAR CYCX 232200Z 13003KT 15SM OVC054 03/M04 A2986 RMK SC8 DA-1110FT SLP114 =
2018-03-23 21:00 METAR CYCX 232100Z 01004KT 15SM OVC050 04/M05 A2984 RMK SC8 DA-955FT SLP108 =
2018-03-23 20:00 METAR CYCX 232000Z 01006KT 15SM OVC048 04/M05 A2983 RMK SC8 DA-921FT SLP103 =
2018-03-23 19:00 METAR CYCX 231900Z 03006KT 340V040 15SM OVC046 05/M05 A2981 RMK SC8 DA-886FT
                 SLP097 =
2018-03-23 18:00 METAR CYCX 231800Z 35005KT 320V030 15SM OVC044 04/M05 A2981 RMK SC8 DA-960FT
                 SLP097 =

Support USWX by starting your Amazon purchase here.